East Randolph, Vermont
Current Conditions -  °F | °C
As of 9:51 AM on Sunday 21 Dec 2014 (Local Time) from KMPV Reporting Station
Haze Haze  
Wind Chill: 17°   Ceiling: 3100
Heat Index: 17°   Visibility: 4mi
Dew Point: 15°   Wind: 0mph
Humidity: 92%   Direction: NA
Pressure: 30.34"   Gusts: NA
Location:  43.94°N, 72.55°W
Report Text: KMPV 211451Z AUTO 00000KT 4SM BR OVC031 M08/M09 A3034 RMK AO2 SLP299 T10831094 53009 $
Loading
Personal Weather Stations






























Interactive Weather Map New forecast layout! Learn more

10-Day Weather Forecast

Advertisements
Track Severe Weather on mobile